createdAt,value
2023-02-17T00:01:09.489Z,101760.34
2023-02-17T00:03:35.833Z,101766.94
2023-02-17T00:06:05.426Z,101763.44
2023-02-17T00:08:31.932Z,101755.72
2023-02-17T00:10:59.613Z,101755.84
2023-02-17T00:13:25.934Z,101750.28
2023-02-17T00:15:52.280Z,101759.78
2023-02-17T00:18:18.914Z,101756.59
2023-02-17T00:20:45.274Z,101751.59
2023-02-17T00:23:11.591Z,101746.81
2023-02-17T00:25:38.188Z,101753.94
2023-02-17T00:28:06.074Z,101737.63
2023-02-17T00:30:32.505Z,101743.66
2023-02-17T00:32:59.114Z,101745.03
2023-02-17T00:35:25.561Z,101748.09
2023-02-17T00:37:51.955Z,101733.69
2023-02-17T00:40:18.371Z,101732.59
2023-02-17T00:42:44.657Z,101734.00
2023-02-17T00:45:12.285Z,101733.47
2023-02-17T00:47:38.664Z,101730.16
2023-02-17T00:50:05.711Z,101727.34
2023-02-17T00:52:31.997Z,101735.63
2023-02-17T00:54:58.331Z,101732.41
2023-02-17T00:57:24.656Z,101738.41
2023-02-17T00:59:50.953Z,101726.53
2023-02-17T01:02:18.611Z,101728.78
2023-02-17T01:04:44.909Z,101726.94
2023-02-17T01:07:11.254Z,101726.81
2023-02-17T01:09:37.635Z,101722.47
2023-02-17T01:12:03.943Z,101722.06
2023-02-17T01:14:30.258Z,101719.69
2023-02-17T01:16:56.623Z,101714.38
2023-02-17T01:19:24.265Z,101713.66
2023-02-17T01:21:50.545Z,101717.28
2023-02-17T01:24:16.873Z,101711.13
2023-02-17T01:26:43.205Z,101714.75
2023-02-17T01:29:09.919Z,101703.59
2023-02-17T01:31:36.683Z,101707.50
2023-02-17T01:34:03.904Z,101697.56
2023-02-17T01:36:31.898Z,101699.25
2023-02-17T01:38:58.353Z,101697.16
2023-02-17T01:41:25.479Z,101692.38
2023-02-17T01:44:04.468Z,101692.25
2023-02-17T01:46:31.995Z,101693.94
2023-02-17T01:48:58.576Z,101688.03
2023-02-17T01:51:26.881Z,101694.06
2023-02-17T01:53:56.380Z,101689.19
2023-02-17T01:56:24.343Z,101696.03
2023-02-17T01:58:54.446Z,101692.13
2023-02-17T02:01:21.105Z,101690.00
2023-02-17T02:03:47.806Z,101696.47
2023-02-17T02:06:17.985Z,101694.50
2023-02-17T02:08:49.012Z,101687.22
2023-02-17T02:11:16.708Z,101686.53
2023-02-17T02:13:43.439Z,101689.19
2023-02-17T02:16:13.404Z,101695.06
2023-02-17T02:18:44.089Z,101692.97
2023-02-17T02:21:21.968Z,101695.63
2023-02-17T02:23:52.742Z,101697.16
2023-02-17T02:26:49.521Z,101700.63
2023-02-17T02:29:30.247Z,101698.41
2023-02-17T02:32:02.093Z,101688.19
2023-02-17T02:34:34.254Z,101680.06
2023-02-17T02:37:01.898Z,101682.59
2023-02-17T02:39:29.913Z,101689.88
2023-02-17T02:41:58.931Z,101682.47
2023-02-17T02:44:25.266Z,101675.84
2023-02-17T02:46:56.490Z,101673.91
2023-02-17T02:49:23.165Z,101669.56
2023-02-17T02:51:54.098Z,101668.06
2023-02-17T02:54:29.883Z,101661.88
2023-02-17T02:57:03.520Z,101658.22
2023-02-17T02:59:34.444Z,101649.44
2023-02-17T03:02:06.302Z,101651.81
2023-02-17T03:04:36.740Z,101637.41
2023-02-17T03:07:06.964Z,101630.53
2023-02-17T03:09:33.464Z,101635.03
2023-02-17T03:11:59.847Z,101631.53
2023-02-17T03:14:27.016Z,101623.13
2023-02-17T03:16:53.749Z,101617.53
2023-02-17T03:19:22.080Z,101601.44
2023-02-17T03:21:49.744Z,101606.75
2023-02-17T03:24:17.750Z,101608.56
2023-02-17T03:26:44.114Z,101608.84
2023-02-17T03:29:10.466Z,101615.00
2023-02-17T03:31:37.427Z,101613.47
2023-02-17T03:34:03.864Z,101620.59
2023-02-17T03:36:30.191Z,101609.69
2023-02-17T03:38:56.540Z,101611.22
2023-02-17T03:41:24.637Z,101616.00
2023-02-17T03:43:51.046Z,101625.47
2023-02-17T03:46:17.927Z,101641.13
2023-02-17T03:48:44.244Z,101636.94
2023-02-17T03:51:11.635Z,101637.25
2023-02-17T03:53:38.017Z,101639.91
2023-02-17T03:56:04.926Z,101643.69
2023-02-17T03:58:32.795Z,101633.31
2023-02-17T04:00:59.085Z,101621.56
2023-02-17T04:03:25.420Z,101629.81
2023-02-17T04:05:51.735Z,101621.84
2023-02-17T04:08:18.058Z,101616.97
2023-02-17T04:10:44.415Z,101619.88
2023-02-17T04:13:10.747Z,101620.47
2023-02-17T04:15:38.439Z,101628.00
2023-02-17T04:18:04.770Z,101632.47
2023-02-17T04:20:31.114Z,101637.81
2023-02-17T04:22:57.393Z,101644.09
2023-02-17T04:25:23.745Z,101638.09
2023-02-17T04:27:50.039Z,101643.81
2023-02-17T04:30:16.611Z,101644.25
2023-02-17T04:32:44.282Z,101630.66
2023-02-17T04:35:10.596Z,101636.41
2023-02-17T04:37:36.919Z,101640.59
2023-02-17T04:40:03.459Z,101640.31
2023-02-17T04:42:29.779Z,101635.72
2023-02-17T04:44:56.114Z,101632.78
2023-02-17T04:47:22.449Z,101637.38
2023-02-17T04:49:50.155Z,101631.50
2023-02-17T04:52:16.458Z,101629.28
2023-02-17T04:54:42.782Z,101640.31
2023-02-17T04:57:09.136Z,101637.78
2023-02-17T04:59:35.563Z,101635.13
2023-02-17T05:02:01.885Z,101635.00
2023-02-17T05:04:28.215Z,101641.72
2023-02-17T05:06:55.883Z,101626.50
2023-02-17T05:09:22.218Z,101612.75
2023-02-17T05:11:48.552Z,101620.88
2023-02-17T05:14:14.871Z,101624.09
2023-02-17T05:16:41.228Z,101633.19
2023-02-17T05:19:07.539Z,101623.97
2023-02-17T05:21:33.870Z,101616.13
2023-02-17T05:24:01.521Z,101613.88
2023-02-17T05:26:27.844Z,101609.13
2023-02-17T05:28:54.129Z,101609.69
2023-02-17T05:31:20.557Z,101610.38
2023-02-17T05:33:46.993Z,101618.91
2023-02-17T05:36:13.323Z,101612.19
2023-02-17T05:38:40.088Z,101607.03
2023-02-17T05:41:07.847Z,101617.81
2023-02-17T05:43:34.150Z,101621.97
2023-02-17T05:46:01.467Z,101619.19
2023-02-17T05:48:27.789Z,101612.63
2023-02-17T05:50:54.136Z,101601.69
2023-02-17T05:53:20.504Z,101605.63
2023-02-17T05:55:48.760Z,101607.44
2023-02-17T05:58:16.529Z,101611.78
2023-02-17T06:00:42.879Z,101615.28
2023-02-17T06:03:09.467Z,101626.50
2023-02-17T06:05:35.963Z,101631.63
2023-02-17T06:08:02.269Z,101634.41
2023-02-17T06:10:28.597Z,101628.00
2023-02-17T06:12:54.927Z,101622.09
2023-02-17T06:15:22.690Z,101613.03
2023-02-17T06:17:49.050Z,101618.22
2023-02-17T06:20:15.524Z,101609.13
2023-02-17T06:22:42.117Z,101614.72
2023-02-17T06:25:08.609Z,101616.38
2023-02-17T06:27:35.217Z,101619.06
2023-02-17T06:30:01.570Z,101623.38
2023-02-17T06:32:29.285Z,101620.59
2023-02-17T06:34:55.617Z,101615.56
2023-02-17T06:37:22.099Z,101610.94
2023-02-17T06:39:48.373Z,101620.03
2023-02-17T06:42:14.650Z,101617.69
2023-02-17T06:44:40.972Z,101619.88
2023-02-17T06:47:07.262Z,101610.94
2023-02-17T06:49:34.912Z,101617.09
2023-02-17T06:52:01.245Z,101623.25
2023-02-17T06:54:27.608Z,101616.25
2023-02-17T06:56:53.910Z,101615.41
2023-02-17T06:59:20.209Z,101608.69
2023-02-17T07:01:46.714Z,101616.00
2023-02-17T07:04:13.119Z,101612.06
2023-02-17T07:06:40.822Z,101616.13
2023-02-17T07:09:07.178Z,101608.28
2023-02-17T07:11:33.602Z,101606.47
2023-02-17T07:14:00.144Z,101602.69
2023-02-17T07:16:26.554Z,101607.59
2023-02-17T07:18:52.900Z,101595.97
2023-02-17T07:21:19.201Z,101612.06
2023-02-17T07:23:46.844Z,101624.69
2023-02-17T07:26:13.116Z,101632.34
2023-02-17T07:28:39.700Z,101619.19
2023-02-17T07:31:06.582Z,101616.84
2023-02-17T07:33:33.040Z,101622.72
2023-02-17T07:35:59.448Z,101621.44
2023-02-17T07:38:25.748Z,101614.88
2023-02-17T07:40:53.426Z,101618.78
2023-02-17T07:43:19.709Z,101611.53
2023-02-17T07:45:46.031Z,101609.56
2023-02-17T07:48:12.363Z,101604.38
2023-02-17T07:50:38.686Z,101603.53
2023-02-17T07:53:05.012Z,101608.13
2023-02-17T07:55:31.355Z,101596.81
2023-02-17T07:57:59.069Z,101599.88
2023-02-17T08:00:25.475Z,101589.13
2023-02-17T08:02:51.793Z,101606.88
2023-02-17T08:05:18.221Z,101600.59
2023-02-17T08:07:44.533Z,101605.19
2023-02-17T08:10:12.241Z,101612.59
2023-02-17T08:12:38.591Z,101609.25
2023-02-17T08:15:07.601Z,101610.81
2023-02-17T08:17:34.183Z,101616.53
2023-02-17T08:20:07.975Z,101617.94
2023-02-17T08:22:34.646Z,101610.78
2023-02-17T08:25:00.938Z,101616.50
2023-02-17T08:27:27.270Z,101617.91
2023-02-17T08:29:55.605Z,101622.66
2023-02-17T08:32:23.457Z,101618.03
2023-02-17T08:34:49.806Z,101620.13
2023-02-17T08:37:16.192Z,101622.91
2023-02-17T08:39:42.571Z,101626.28
2023-02-17T08:42:08.883Z,101613.63
2023-02-17T08:44:35.947Z,101615.22
2023-02-17T08:47:02.447Z,101614.09
2023-02-17T08:49:30.153Z,101627.25
2023-02-17T08:51:56.602Z,101632.03
2023-02-17T08:54:22.945Z,101616.84
2023-02-17T08:56:49.409Z,101629.09
2023-02-17T08:59:15.738Z,101632.72
2023-02-17T09:01:42.964Z,101630.06
2023-02-17T09:04:10.468Z,101629.06
2023-02-17T09:06:40.309Z,101636.38
2023-02-17T09:09:08.485Z,101627.97
2023-02-17T09:11:34.878Z,101624.00
2023-02-17T09:14:01.269Z,101615.13
2023-02-17T09:16:28.015Z,101621.03
2023-02-17T09:18:54.528Z,101615.41
2023-02-17T09:21:21.151Z,101639.09
2023-02-17T09:23:48.822Z,101636.00
2023-02-17T09:26:16.152Z,101634.91
2023-02-17T09:28:42.936Z,101646.91
2023-02-17T09:31:09.909Z,101642.66
2023-02-17T09:33:36.316Z,101639.72
2023-02-17T09:36:02.845Z,101652.59
2023-02-17T09:38:29.172Z,101652.13
2023-02-17T09:41:00.370Z,101651.25
2023-02-17T09:43:28.525Z,101648.56
2023-02-17T09:45:56.774Z,101659.31
2023-02-17T09:48:25.877Z,101658.88
2023-02-17T09:50:54.344Z,101659.19
2023-02-17T09:53:24.822Z,101661.00
2023-02-17T09:55:52.932Z,101654.41
2023-02-17T09:58:23.290Z,101666.97
2023-02-17T10:00:51.336Z,101680.44
2023-02-17T10:03:20.351Z,101667.19
2023-02-17T10:05:49.637Z,101659.22
2023-02-17T10:08:17.734Z,101659.31
2023-02-17T10:10:47.824Z,101672.66
2023-02-17T10:13:15.606Z,101673.56
2023-02-17T10:15:44.841Z,101667.75
2023-02-17T10:18:13.073Z,101668.03
2023-02-17T10:20:40.779Z,101683.91
2023-02-17T10:23:10.703Z,101694.28
2023-02-17T10:25:44.996Z,101690.06
2023-02-17T10:28:17.172Z,101680.25
2023-02-17T10:30:49.599Z,101688.66
2023-02-17T10:33:21.077Z,101689.72
2023-02-17T10:35:50.842Z,101684.09
2023-02-17T10:38:18.531Z,101669.38
2023-02-17T10:40:46.997Z,101682.00
2023-02-17T10:43:14.961Z,101689.94
2023-02-17T10:45:43.116Z,101683.94
2023-02-17T10:48:13.371Z,101665.38
2023-02-17T10:50:41.083Z,101665.38
2023-02-17T10:53:12.326Z,101661.72
2023-02-17T10:55:40.872Z,101672.94
2023-02-17T10:58:20.797Z,101662.25
2023-02-17T11:00:49.796Z,101669.50
2023-02-17T11:03:21.457Z,101671.72
2023-02-17T11:05:53.293Z,101684.28
2023-02-17T11:08:25.562Z,101683.22
2023-02-17T11:10:58.920Z,101680.06
2023-02-17T11:13:29.743Z,101672.47
2023-02-17T11:15:56.049Z,101682.09
2023-02-17T11:18:27.475Z,101689.91
2023-02-17T11:20:59.609Z,101694.56
2023-02-17T11:23:25.968Z,101713.88
2023-02-17T11:25:57.074Z,101687.84
2023-02-17T11:28:24.627Z,101679.19
2023-02-17T11:30:52.546Z,101666.97
2023-02-17T11:33:21.385Z,101670.84
2023-02-17T11:35:51.050Z,101662.84
2023-02-17T11:38:18.836Z,101658.22
2023-02-17T11:40:52.228Z,101660.16
2023-02-17T11:43:18.522Z,101660.50
2023-02-17T11:45:49.827Z,101659.50
2023-02-17T11:48:27.472Z,101654.16
2023-02-17T11:51:00.010Z,101643.91
2023-02-17T11:53:33.997Z,101635.22
2023-02-17T11:56:10.875Z,101637.56
2023-02-17T11:58:44.731Z,101636.16
2023-02-17T12:01:18.859Z,101626.81
2023-02-17T12:03:54.033Z,101614.16
2023-02-17T12:06:24.064Z,101625.28
2023-02-17T12:09:07.371Z,101638.88
2023-02-17T12:11:37.146Z,101631.53
2023-02-17T12:14:11.429Z,101640.56
2023-02-17T12:16:42.341Z,101634.94
2023-02-17T12:19:17.233Z,101641.28
2023-02-17T12:21:51.976Z,101647.94
2023-02-17T12:24:27.703Z,101654.94
2023-02-17T12:27:00.644Z,101647.75
2023-02-17T12:29:34.047Z,101633.53
2023-02-17T12:32:05.501Z,101647.28
2023-02-17T12:34:34.095Z,101655.25
2023-02-17T12:37:01.998Z,101641.53
2023-02-17T12:39:30.703Z,101634.69
2023-02-17T12:42:00.113Z,101634.38
2023-02-17T12:44:28.138Z,101624.53
2023-02-17T12:46:57.125Z,101648.41
2023-02-17T12:49:26.836Z,101657.13
2023-02-17T12:51:55.785Z,101665.44
2023-02-17T12:54:26.877Z,101666.34
2023-02-17T12:56:59.938Z,101666.28
2023-02-17T12:59:27.148Z,101681.06
2023-02-17T13:01:57.183Z,101681.56
2023-02-17T13:04:24.722Z,101676.06
2023-02-17T13:06:53.428Z,101690.75
2023-02-17T13:09:24.823Z,101683.22
2023-02-17T13:11:52.542Z,101677.28
2023-02-17T13:14:25.165Z,101688.69
2023-02-17T13:16:51.486Z,101681.03
2023-02-17T13:19:27.201Z,101665.34
2023-02-17T13:21:54.495Z,101674.88
2023-02-17T13:24:31.016Z,101686.84
2023-02-17T13:27:09.214Z,101691.59
2023-02-17T13:29:35.766Z,101698.94
2023-02-17T13:32:04.051Z,101686.69
2023-02-17T13:34:32.405Z,101682.09
2023-02-17T13:37:00.475Z,101700.66
2023-02-17T13:39:32.532Z,101713.97
2023-02-17T13:42:01.241Z,101708.53
2023-02-17T13:44:28.309Z,101711.25
2023-02-17T13:46:56.916Z,101725.41
2023-02-17T13:49:24.242Z,101720.97
2023-02-17T13:51:50.589Z,101734.56
2023-02-17T13:54:20.460Z,101738.19
2023-02-17T13:56:50.089Z,101740.41
2023-02-17T13:59:23.472Z,101748.69
2023-02-17T14:01:50.704Z,101758.47
2023-02-17T14:04:19.279Z,101767.94
2023-02-17T14:06:45.818Z,101754.88
2023-02-17T14:09:12.816Z,101743.75
2023-02-17T14:11:39.264Z,101744.81
2023-02-17T14:14:06.387Z,101752.53
2023-02-17T14:16:35.251Z,101771.50
2023-02-17T14:19:02.559Z,101772.66
2023-02-17T14:21:28.933Z,101782.47
2023-02-17T14:23:55.995Z,101784.94
2023-02-17T14:26:30.504Z,101780.13
2023-02-17T14:28:57.660Z,101782.19
2023-02-17T14:31:24.402Z,101775.16
2023-02-17T14:33:56.818Z,101793.88
2023-02-17T14:36:27.403Z,101785.03
2023-02-17T14:38:54.940Z,101791.63
2023-02-17T14:41:21.270Z,101798.75
2023-02-17T14:43:47.570Z,101805.88
2023-02-17T14:46:13.934Z,101799.25
2023-02-17T14:48:40.267Z,101795.84
2023-02-17T14:51:11.950Z,101784.81
2023-02-17T14:53:38.386Z,101780.19
2023-02-17T14:56:07.956Z,101772.22
2023-02-17T14:58:34.615Z,101785.75
2023-02-17T15:01:01.369Z,101775.88
2023-02-17T15:03:27.958Z,101778.47
2023-02-17T15:05:54.561Z,101793.63
2023-02-17T15:08:25.257Z,101794.47
2023-02-17T15:10:51.587Z,101796.59
2023-02-17T15:13:19.149Z,101797.84
2023-02-17T15:15:46.116Z,101799.00
2023-02-17T15:18:12.451Z,101806.84
2023-02-17T15:20:40.649Z,101808.78
2023-02-17T15:23:11.563Z,101815.50
2023-02-17T15:25:39.290Z,101809.38
2023-02-17T15:28:05.610Z,101805.59
2023-02-17T15:30:32.097Z,101807.59
2023-02-17T15:32:58.460Z,101809.00
2023-02-17T15:35:26.255Z,101809.97
2023-02-17T15:37:52.594Z,101815.59
2023-02-17T15:40:21.546Z,101817.81
2023-02-17T15:42:51.016Z,101809.97
2023-02-17T15:45:18.314Z,101821.34
2023-02-17T15:47:44.977Z,101802.50
2023-02-17T15:50:15.476Z,101813.63
2023-02-17T15:52:41.807Z,101811.09
2023-02-17T15:55:08.093Z,101812.06
2023-02-17T15:57:36.352Z,101806.03
2023-02-17T16:00:04.412Z,101812.06
2023-02-17T16:02:30.808Z,101807.03
2023-02-17T16:04:57.110Z,101803.06
2023-02-17T16:07:23.453Z,101810.25
2023-02-17T16:09:49.793Z,101824.69
2023-02-17T16:12:17.974Z,101830.88
2023-02-17T16:14:44.688Z,101833.41
2023-02-17T16:17:14.541Z,101834.84
2023-02-17T16:19:40.867Z,101840.44
2023-02-17T16:22:07.219Z,101831.44
2023-02-17T16:24:33.557Z,101846.34
2023-02-17T16:27:00.358Z,101843.09
2023-02-17T16:29:26.689Z,101845.34
2023-02-17T16:31:53.153Z,101849.84
2023-02-17T16:34:21.577Z,101860.34
2023-02-17T16:36:48.433Z,101870.03
2023-02-17T16:39:17.737Z,101869.06
2023-02-17T16:41:44.356Z,101866.66
2023-02-17T16:44:12.376Z,101857.69
2023-02-17T16:46:39.121Z,101871.13
2023-02-17T16:49:16.431Z,101866.94
2023-02-17T16:51:44.145Z,101880.66
2023-02-17T16:54:10.846Z,101879.44
2023-02-17T16:56:39.698Z,101883.78
2023-02-17T16:59:06.015Z,101871.84
2023-02-17T17:01:32.368Z,101880.56
2023-02-17T17:03:58.679Z,101891.91
2023-02-17T17:06:25.985Z,101886.59
2023-02-17T17:08:53.765Z,101889.25
2023-02-17T17:11:21.000Z,101898.38
2023-02-17T17:13:47.676Z,101900.03
2023-02-17T17:16:15.031Z,101904.13
2023-02-17T17:18:41.481Z,101910.44
2023-02-17T17:21:07.785Z,101914.06
2023-02-17T17:23:34.107Z,101920.78
2023-02-17T17:26:01.802Z,101930.34
2023-02-17T17:28:28.101Z,101925.16
2023-02-17T17:30:54.433Z,101924.75
2023-02-17T17:33:20.769Z,101943.25
2023-02-17T17:35:47.055Z,101932.88
2023-02-17T17:38:13.954Z,101942.56
2023-02-17T17:40:40.288Z,101944.38
2023-02-17T17:43:07.905Z,101948.00
2023-02-17T17:45:34.259Z,101955.31
2023-02-17T17:48:00.620Z,101938.91
2023-02-17T17:50:26.988Z,101958.53
2023-02-17T17:52:53.305Z,101949.00
2023-02-17T17:55:19.789Z,101955.31
2023-02-17T17:57:46.111Z,101949.13
2023-02-17T18:00:15.374Z,101947.16
2023-02-17T18:02:41.710Z,101945.47
2023-02-17T18:05:08.360Z,101946.91
2023-02-17T18:07:37.288Z,101955.59
2023-02-17T18:10:05.106Z,101958.41
2023-02-17T18:12:32.129Z,101959.50
2023-02-17T18:14:58.549Z,101968.50
2023-02-17T18:17:26.203Z,101980.69
2023-02-17T18:19:52.802Z,101975.38
2023-02-17T18:22:19.104Z,101975.63
2023-02-17T18:24:45.414Z,101981.69
2023-02-17T18:27:11.712Z,101985.19
2023-02-17T18:29:38.044Z,101981.94
2023-02-17T18:32:04.454Z,101984.22
2023-02-17T18:34:32.239Z,101984.47
2023-02-17T18:36:58.675Z,101997.34
2023-02-17T18:39:25.017Z,101998.19
2023-02-17T18:41:51.422Z,102010.81
2023-02-17T18:44:18.146Z,102010.81
2023-02-17T18:46:44.536Z,102006.06
2023-02-17T18:49:10.867Z,102011.50
2023-02-17T18:51:38.509Z,101998.63
2023-02-17T18:54:05.080Z,102013.06
2023-02-17T18:56:32.318Z,102019.25
2023-02-17T18:58:58.753Z,102023.16
2023-02-17T19:01:26.487Z,102031.59
2023-02-17T19:03:52.978Z,102031.56
2023-02-17T19:06:21.116Z,102021.31
2023-02-17T19:08:48.839Z,102028.22
2023-02-17T19:11:15.928Z,102026.94
2023-02-17T19:13:42.477Z,102025.94
2023-02-17T19:16:09.961Z,102037.13
2023-02-17T19:18:36.556Z,102036.06
2023-02-17T19:21:03.354Z,102046.13
2023-02-17T19:23:29.672Z,102039.81
2023-02-17T19:25:57.388Z,102045.03
2023-02-17T19:28:23.786Z,102040.94
2023-02-17T19:30:50.131Z,102033.75
2023-02-17T19:33:16.408Z,102039.81
2023-02-17T19:35:42.925Z,102033.19
2023-02-17T19:38:09.404Z,102043.44
2023-02-17T19:40:36.016Z,102051.84
2023-02-17T19:43:03.744Z,102036.28
2023-02-17T19:45:30.107Z,102048.31
2023-02-17T19:47:56.475Z,102034.75
2023-02-17T19:50:22.891Z,102034.34
2023-02-17T19:52:49.161Z,102031.06
2023-02-17T19:55:15.577Z,102034.88
2023-02-17T19:57:41.908Z,102026.16
2023-02-17T20:00:10.139Z,102030.13
2023-02-17T20:02:36.644Z,102043.56
2023-02-17T20:05:03.028Z,102050.28
2023-02-17T20:07:29.348Z,102037.97
2023-02-17T20:09:55.691Z,102041.84
2023-02-17T20:12:22.008Z,102034.81
2023-02-17T20:14:48.336Z,102038.78
2023-02-17T20:17:15.993Z,102047.63
2023-02-17T20:19:42.302Z,102044.25
2023-02-17T20:22:08.853Z,102041.59
2023-02-17T20:24:36.376Z,102047.56
2023-02-17T20:27:02.687Z,102055.88
2023-02-17T20:29:29.086Z,102056.72
2023-02-17T20:31:55.512Z,102063.88
2023-02-17T20:34:26.671Z,102063.56
2023-02-17T20:36:53.016Z,102062.44
2023-02-17T20:39:19.308Z,102062.19
2023-02-17T20:41:45.626Z,102063.16
2023-02-17T20:44:12.505Z,102061.47
2023-02-17T20:46:39.406Z,102054.75
2023-02-17T20:49:05.790Z,102063.56
2023-02-17T20:51:33.432Z,102050.09
2023-02-17T20:53:59.722Z,102069.88
2023-02-17T20:56:31.167Z,102070.75
2023-02-17T20:58:57.522Z,102064.38
2023-02-17T21:01:23.802Z,102064.69
2023-02-17T21:03:50.649Z,102061.66
2023-02-17T21:06:19.901Z,102055.44
2023-02-17T21:08:48.003Z,102063.41
2023-02-17T21:11:14.307Z,102060.13
2023-02-17T21:13:40.616Z,102059.13
2023-02-17T21:16:07.243Z,102073.56
2023-02-17T21:18:33.743Z,102069.03
2023-02-17T21:21:00.153Z,102066.50
2023-02-17T21:23:26.565Z,102075.72
2023-02-17T21:25:54.207Z,102075.38
2023-02-17T21:28:20.587Z,102072.31
2023-02-17T21:30:46.873Z,102057.59
2023-02-17T21:33:13.236Z,102064.75
2023-02-17T21:35:39.537Z,102068.13
2023-02-17T21:38:05.859Z,102059.81
2023-02-17T21:40:32.509Z,102066.28
2023-02-17T21:43:00.244Z,102079.03
2023-02-17T21:45:26.581Z,102078.06
2023-02-17T21:47:52.918Z,102075.06
2023-02-17T21:50:19.467Z,102079.41
2023-02-17T21:52:45.767Z,102073.56
2023-02-17T21:55:12.104Z,102072.28
2023-02-17T21:57:38.424Z,102071.41
2023-02-17T22:00:07.034Z,102075.91
2023-02-17T22:02:33.342Z,102057.47
2023-02-17T22:04:59.647Z,102057.72
2023-02-17T22:07:25.933Z,102062.50
2023-02-17T22:09:52.275Z,102049.94
2023-02-17T22:12:18.566Z,102052.69
2023-02-17T22:14:44.879Z,102052.97
2023-02-17T22:17:12.574Z,102048.06
2023-02-17T22:19:38.981Z,102043.97
2023-02-17T22:22:05.298Z,102046.38
2023-02-17T22:24:31.662Z,102060.78
2023-02-17T22:26:57.994Z,102047.88
2023-02-17T22:29:24.321Z,102043.13
2023-02-17T22:31:50.867Z,102050.16
2023-02-17T22:34:18.550Z,102043.44
2023-02-17T22:36:44.913Z,102040.47
2023-02-17T22:39:11.440Z,102052.28
2023-02-17T22:41:37.768Z,102044.63
2023-02-17T22:44:04.208Z,102046.09
2023-02-17T22:46:30.579Z,102048.47
2023-02-17T22:48:57.112Z,102050.47
2023-02-17T22:51:26.065Z,102042.03
2023-02-17T22:53:52.746Z,102046.38
2023-02-17T22:56:19.368Z,102048.91
2023-02-17T22:58:45.642Z,102045.97
2023-02-17T23:01:13.161Z,102036.31
2023-02-17T23:03:39.558Z,102044.41
2023-02-17T23:06:07.620Z,102043.16
2023-02-17T23:08:35.734Z,102044.34
2023-02-17T23:11:04.103Z,102045.47
2023-02-17T23:13:30.569Z,102041.44
2023-02-17T23:15:56.899Z,102045.69
2023-02-17T23:18:23.274Z,102045.41
2023-02-17T23:20:49.936Z,102046.63
2023-02-17T23:23:16.249Z,102045.66
2023-02-17T23:25:47.456Z,102046.09
2023-02-17T23:28:13.772Z,102045.81
2023-02-17T23:30:40.590Z,102040.50
2023-02-17T23:33:06.917Z,102038.44
2023-02-17T23:35:33.343Z,102039.66
2023-02-17T23:37:59.655Z,102044.97
2023-02-17T23:40:26.088Z,102042.91
2023-02-17T23:42:53.839Z,102023.13
2023-02-17T23:45:20.277Z,102030.28
2023-02-17T23:47:46.600Z,102024.53
2023-02-17T23:50:13.277Z,102028.66
2023-02-17T23:52:40.350Z,102017.09
2023-02-17T23:55:07.121Z,102022.72
2023-02-17T23:57:35.867Z,102023.84
